FNL weather

Northern Colorado Regional Airport
Fort Collins/Loveland, Colorado, United States

Public forecast

Using degrees Fahrenheit for public forecast. Weather courtesy of forecast.io.

METAR (pilot weather report)

Retrieved 2019/09/23 04:56 UTC (56 minutes ago):

KFNL 230456Z AUTO 24003KT 10SM CLR 15/04 A3013 RMK AO2 SLP162 T01500039

TAF (pilot weather forecast)

Forecast is more than 12 hours old.

Closest forecast is Rocky Mountain Metropolitan Airport, 33.0 nm (61.0 km) S. Retrieved 2019/09/22 00:39 UTC (1 day ago):

TAF KBJC 222335Z 2300/2324 16006KT P6SM FEW100 FM230200 VRB04KT P6SM FEW220 FM231800 09007KT P6SM SKC